Ana Sayfa
METAR-TAF:

METAR-TAF

Havaalanları :

Gökçeada Havalimanı

Gökçeada, Türkiye

Enlem: 40-12-04N, Boylam: 25-52-56E, yükseklik: 22 m

Güncel hava durumu gözlemi

Rapor saat 17:50 UTC de 22 saat ve 2 dakika önce yapıldı.
Rüzgar değişken yönden 2 kt
Sıcaklık 19°C
Nem 88%
Basınç 1011 hPa
Görüş mesafesi 10 km veya daha fazla
3500 ft yükseklikte az bulutlu
10000 ft yükseklikte parçalı bulutlu

METAR: LTFK 251750Z VRB02KT 9999 FEW035 SCT100 19/17 Q1011

Saat: 18:52 (15:52 UTC)


TAF: eksik

4.000'den fazla havaalanı için hava durumu gözlemleri ve tahminleri (METAR ve TAF raporları).

Kullanılabilir istasyonlar harita üzerinde sarı ve kırmızı noktalarla gösterilir.

İstasyonun adını görmek için fareyi noktanın üzerinde gezdirin.

Sonrasında hava gözlem ve tahminlerini görmek için tıklayın.

Haritayı değiştirmek için: yaklaştırmak için siyah artı işaretli yeşil düğmeye ve uzaklaştırmak için de eksi işaretli düğmeye hızla tıklayın; bitişik haritalar için yeşil okları kullanın.


METAR-TAF: